createdAt,value
2018-02-27T00:00:35.478Z,4.40
2018-02-27T00:03:04.354Z,3.90
2018-02-27T00:05:33.219Z,4.50
2018-02-27T00:08:02.094Z,3.37
2018-02-27T00:10:31.497Z,3.87
2018-02-27T00:13:00.570Z,4.07
2018-02-27T00:15:30.413Z,3.73
2018-02-27T00:17:59.276Z,3.63
2018-02-27T00:20:28.129Z,4.30
2018-02-27T00:22:56.975Z,3.87
2018-02-27T00:25:25.847Z,4.00
2018-02-27T00:27:54.689Z,3.97
2018-02-27T00:30:23.560Z,3.87
2018-02-27T00:32:52.752Z,4.47
2018-02-27T00:35:21.688Z,4.60
2018-02-27T00:37:51.280Z,3.83
2018-02-27T00:40:20.119Z,4.43
2018-02-27T00:42:48.948Z,4.10
2018-02-27T00:45:17.804Z,3.83
2018-02-27T00:47:46.733Z,4.40
2018-02-27T00:50:15.582Z,4.17
2018-02-27T00:52:44.474Z,3.73
2018-02-27T00:55:13.314Z,3.80
2018-02-27T00:57:42.987Z,3.93
2018-02-27T01:00:11.853Z,4.00
2018-02-27T01:02:40.709Z,4.10
2018-02-27T01:05:09.574Z,4.30
2018-02-27T01:07:38.679Z,3.83
2018-02-27T01:10:07.549Z,3.97
2018-02-27T01:12:36.432Z,3.40
2018-02-27T01:15:05.287Z,4.17
2018-02-27T01:17:35.030Z,3.80
2018-02-27T01:20:03.929Z,3.60
2018-02-27T01:22:32.792Z,3.80
2018-02-27T01:25:02.008Z,4.03
2018-02-27T01:27:31.217Z,4.47
2018-02-27T01:30:00.076Z,3.80
2018-02-27T01:32:28.920Z,4.00
2018-02-27T01:34:57.804Z,4.07
2018-02-27T01:37:26.656Z,3.43
2018-02-27T01:39:55.498Z,3.93
2018-02-27T01:42:24.383Z,3.77
2018-02-27T01:44:53.318Z,3.83
2018-02-27T01:47:22.218Z,3.73
2018-02-27T01:49:51.078Z,3.87
2018-02-27T01:52:19.926Z,3.57
2018-02-27T01:54:48.747Z,3.40
2018-02-27T01:57:17.618Z,3.67
2018-02-27T01:59:46.468Z,4.17
2018-02-27T02:02:15.316Z,3.90
2018-02-27T02:04:44.191Z,3.10
2018-02-27T02:07:13.708Z,3.87
2018-02-27T02:09:42.564Z,3.80
2018-02-27T02:12:11.436Z,3.77
2018-02-27T02:14:40.267Z,3.50
2018-02-27T02:17:09.108Z,3.80
2018-02-27T02:19:38.862Z,4.00
2018-02-27T02:22:07.704Z,3.63
2018-02-27T02:24:36.599Z,3.27
2018-02-27T02:27:05.451Z,3.10
2018-02-27T02:29:34.350Z,3.57
2018-02-27T02:32:03.221Z,3.50
2018-02-27T02:34:32.883Z,3.60
2018-02-27T02:37:02.763Z,3.47
2018-02-27T02:39:31.605Z,3.27
2018-02-27T02:42:06.472Z,3.60
2018-02-27T02:44:35.321Z,3.43
2018-02-27T02:47:04.993Z,3.77
2018-02-27T02:49:33.858Z,3.93
2018-02-27T02:52:02.704Z,3.30
2018-02-27T02:54:31.576Z,3.70
2018-02-27T02:57:00.446Z,3.00
2018-02-27T02:59:29.295Z,3.37
2018-02-27T03:01:58.604Z,3.43
2018-02-27T03:04:27.466Z,3.40
2018-02-27T03:06:56.311Z,3.37
2018-02-27T03:09:25.184Z,3.40
2018-02-27T03:11:54.023Z,2.93
2018-02-27T03:14:22.886Z,3.37
2018-02-27T03:16:53.132Z,3.53
2018-02-27T03:19:21.980Z,3.17
2018-02-27T03:21:50.907Z,3.43
2018-02-27T03:24:19.946Z,3.43
2018-02-27T03:26:48.867Z,3.20
2018-02-27T03:29:17.752Z,3.37
2018-02-27T03:31:47.026Z,3.30
2018-02-27T03:34:15.960Z,3.37
2018-02-27T03:36:44.868Z,3.37
2018-02-27T03:39:13.757Z,3.53
2018-02-27T03:41:42.684Z,3.10
2018-02-27T03:44:11.605Z,2.83
2018-02-27T03:46:40.503Z,3.47
2018-02-27T03:49:09.414Z,3.40
2018-02-27T03:51:38.772Z,3.30
2018-02-27T03:54:07.616Z,3.00
2018-02-27T03:56:36.496Z,3.23
2018-02-27T03:59:05.332Z,3.23
2018-02-27T04:01:34.301Z,3.40
2018-02-27T04:04:03.196Z,3.50
2018-02-27T04:06:32.036Z,3.30
2018-02-27T04:09:00.871Z,3.17
2018-02-27T04:11:29.729Z,3.23
2018-02-27T04:13:58.644Z,3.43
2018-02-27T04:16:27.474Z,3.80
2018-02-27T04:18:56.328Z,3.00
2018-02-27T04:21:25.188Z,3.47
2018-02-27T04:23:54.020Z,3.40
2018-02-27T04:26:22.937Z,3.37
2018-02-27T04:28:51.774Z,2.93
2018-02-27T04:31:22.168Z,3.63
2018-02-27T04:33:51.157Z,3.13
2018-02-27T04:36:19.928Z,3.27
2018-02-27T04:38:48.760Z,3.17
2018-02-27T04:41:17.671Z,3.00
2018-02-27T04:43:46.520Z,3.60
2018-02-27T04:46:15.367Z,3.43
2018-02-27T04:48:44.242Z,3.30
2018-02-27T04:51:13.063Z,3.10
2018-02-27T04:53:41.896Z,3.50
2018-02-27T04:56:11.545Z,3.20
2018-02-27T04:58:40.386Z,3.60
2018-02-27T05:01:09.254Z,3.37
2018-02-27T05:03:38.103Z,4.00
2018-02-27T05:06:07.563Z,3.80
2018-02-27T05:08:36.411Z,3.20
2018-02-27T05:11:05.320Z,3.43
2018-02-27T05:13:34.192Z,3.57
2018-02-27T05:16:03.041Z,3.63
2018-02-27T05:18:31.911Z,3.60
2018-02-27T05:21:01.332Z,3.70
2018-02-27T05:23:30.288Z,3.40
2018-02-27T05:25:59.118Z,3.67
2018-02-27T05:28:27.958Z,3.20
2018-02-27T05:30:56.853Z,3.30
2018-02-27T05:33:25.685Z,3.47
2018-02-27T05:35:54.902Z,3.43
2018-02-27T05:38:24.003Z,3.23
2018-02-27T05:40:52.900Z,3.10
2018-02-27T05:43:21.738Z,3.33
2018-02-27T05:45:50.650Z,3.60
2018-02-27T05:48:19.494Z,3.17
2018-02-27T05:50:48.357Z,3.30
2018-02-27T05:53:17.244Z,3.37
2018-02-27T05:55:46.081Z,3.40
2018-02-27T05:58:16.079Z,3.63
2018-02-27T06:00:44.959Z,3.90
2018-02-27T06:03:14.867Z,3.80
2018-02-27T06:05:43.737Z,3.80
2018-02-27T06:08:12.613Z,3.63
2018-02-27T06:10:41.446Z,3.47
2018-02-27T06:13:10.304Z,4.07
2018-02-27T06:15:39.299Z,3.23
2018-02-27T06:18:08.131Z,3.90
2018-02-27T06:20:36.997Z,3.37
2018-02-27T06:23:05.860Z,3.70
2018-02-27T06:25:34.779Z,3.60
2018-02-27T06:28:03.627Z,3.53
2018-02-27T06:30:32.506Z,4.00
2018-02-27T06:33:01.369Z,4.30
2018-02-27T06:35:30.561Z,3.67
2018-02-27T06:38:00.354Z,3.23
2018-02-27T06:40:29.245Z,3.83
2018-02-27T06:42:58.087Z,4.17
2018-02-27T06:45:28.173Z,3.83
2018-02-27T06:47:57.035Z,4.10
2018-02-27T06:50:25.877Z,4.03
2018-02-27T06:52:54.721Z,4.10
2018-02-27T06:55:23.586Z,4.50
2018-02-27T06:57:53.249Z,4.53
2018-02-27T07:00:22.419Z,4.50
2018-02-27T07:02:52.005Z,4.07
2018-02-27T07:05:20.993Z,4.60
2018-02-27T07:07:49.851Z,4.73
2018-02-27T07:10:20.665Z,5.37
2018-02-27T07:12:49.482Z,5.03
2018-02-27T07:15:18.335Z,5.27
2018-02-27T07:17:47.239Z,5.47
2018-02-27T07:20:16.081Z,6.37
2018-02-27T07:22:44.942Z,5.63
2018-02-27T07:25:14.868Z,6.20
2018-02-27T07:27:43.729Z,6.33
2018-02-27T07:30:12.647Z,5.70
2018-02-27T07:32:41.460Z,5.93
2018-02-27T07:35:10.311Z,5.63
2018-02-27T07:37:39.177Z,5.63
2018-02-27T07:40:08.027Z,5.70
2018-02-27T07:42:36.934Z,5.80
2018-02-27T07:45:05.854Z,6.03
2018-02-27T07:47:34.685Z,5.77
2018-02-27T07:50:03.579Z,5.93
2018-02-27T07:52:32.496Z,6.30
2018-02-27T07:55:01.313Z,6.80
2018-02-27T07:57:30.181Z,6.67
2018-02-27T07:59:59.031Z,6.53
2018-02-27T08:02:29.358Z,7.10
2018-02-27T08:04:58.251Z,6.37
2018-02-27T08:07:27.087Z,6.67
2018-02-27T08:09:56.785Z,6.73
2018-02-27T08:12:25.648Z,6.90
2018-02-27T08:14:54.507Z,6.73
2018-02-27T08:17:23.335Z,6.30
2018-02-27T08:19:52.239Z,6.57
2018-02-27T08:22:21.078Z,6.53
2018-02-27T08:24:49.917Z,5.80
2018-02-27T08:27:19.096Z,6.30
2018-02-27T08:29:47.957Z,5.90
2018-02-27T08:32:16.874Z,5.97
2018-02-27T08:34:45.717Z,6.40
2018-02-27T08:37:14.564Z,5.40
2018-02-27T08:39:43.427Z,6.00
2018-02-27T08:42:12.267Z,5.53
2018-02-27T08:44:41.105Z,5.03
2018-02-27T08:47:09.970Z,5.20
2018-02-27T08:49:38.936Z,4.80
2018-02-27T08:52:07.785Z,5.07
2018-02-27T08:54:37.449Z,5.53
2018-02-27T08:57:06.301Z,5.00
2018-02-27T08:59:35.259Z,4.70
2018-02-27T09:02:04.129Z,4.47
2018-02-27T09:04:33.859Z,4.37
2018-02-27T09:07:02.699Z,4.33
2018-02-27T09:09:31.581Z,4.20
2018-02-27T09:12:00.519Z,4.20
2018-02-27T09:14:29.367Z,4.30
2018-02-27T09:16:58.241Z,4.30
2018-02-27T09:19:27.091Z,4.17
2018-02-27T09:21:55.927Z,4.30
2018-02-27T09:24:24.785Z,4.37
2018-02-27T09:26:53.661Z,4.00
2018-02-27T09:29:22.535Z,4.40
2018-02-27T09:31:51.401Z,4.43
2018-02-27T09:34:20.236Z,4.37
2018-02-27T09:36:49.871Z,4.17
2018-02-27T09:39:19.069Z,4.10
2018-02-27T09:41:47.958Z,4.13
2018-02-27T09:44:16.937Z,4.23
2018-02-27T09:46:45.991Z,3.77
2018-02-27T09:49:14.887Z,3.60
2018-02-27T09:51:43.730Z,3.60
2018-02-27T09:54:12.610Z,3.67
2018-02-27T09:56:41.448Z,3.73
2018-02-27T09:59:10.309Z,3.37
2018-02-27T10:01:40.032Z,3.77
2018-02-27T10:04:09.756Z,3.87
2018-02-27T10:06:38.596Z,3.57
2018-02-27T10:09:07.467Z,3.70
2018-02-27T10:11:36.307Z,3.77
2018-02-27T10:14:05.157Z,3.90
2018-02-27T10:16:34.023Z,3.80
2018-02-27T10:19:02.897Z,3.90
2018-02-27T10:21:33.197Z,4.00
2018-02-27T10:24:02.090Z,3.40
2018-02-27T10:26:31.001Z,3.00
2018-02-27T10:28:59.928Z,3.50
2018-02-27T10:31:28.835Z,3.40
2018-02-27T10:33:57.674Z,3.20
2018-02-27T10:36:26.569Z,3.17
2018-02-27T10:38:55.412Z,3.10
2018-02-27T10:41:24.466Z,2.80
2018-02-27T10:43:53.383Z,2.97
2018-02-27T10:46:22.299Z,3.27
2018-02-27T10:48:51.951Z,3.00
2018-02-27T10:51:20.788Z,3.30
2018-02-27T10:53:49.631Z,3.03
2018-02-27T10:56:18.808Z,2.70
2018-02-27T10:58:47.674Z,3.00
2018-02-27T11:01:21.334Z,3.00
2018-02-27T11:03:50.275Z,3.00
2018-02-27T11:06:19.345Z,2.97
2018-02-27T11:08:48.249Z,3.00
2018-02-27T11:11:17.084Z,2.90
2018-02-27T11:13:46.761Z,2.67
2018-02-27T11:16:15.623Z,3.20
2018-02-27T11:18:44.464Z,3.10
2018-02-27T11:21:14.291Z,3.10
2018-02-27T11:23:43.150Z,3.27
2018-02-27T11:26:12.611Z,3.30
2018-02-27T11:28:41.471Z,3.63
2018-02-27T11:31:11.191Z,3.50
2018-02-27T11:33:40.040Z,3.37
2018-02-27T11:36:08.925Z,2.93
2018-02-27T11:38:37.783Z,3.47
2018-02-27T11:41:06.617Z,3.23
2018-02-27T11:43:35.527Z,2.90
2018-02-27T11:46:04.375Z,3.27
2018-02-27T11:48:33.240Z,3.40
2018-02-27T11:51:02.109Z,3.20
2018-02-27T11:53:30.976Z,3.13
2018-02-27T11:55:59.831Z,2.80
2018-02-27T11:58:28.703Z,3.00
2018-02-27T12:00:57.570Z,2.63
2018-02-27T12:03:26.428Z,2.90
2018-02-27T12:05:55.293Z,2.90
2018-02-27T12:08:24.133Z,2.50
2018-02-27T12:10:54.335Z,2.87
2018-02-27T12:13:23.216Z,2.87
2018-02-27T12:15:52.052Z,3.17
2018-02-27T12:18:20.934Z,3.00
2018-02-27T12:20:49.790Z,3.37
2018-02-27T12:23:18.624Z,2.83
2018-02-27T12:25:47.492Z,2.93
2018-02-27T12:28:17.854Z,3.10
2018-02-27T12:30:46.711Z,3.17
2018-02-27T12:33:15.620Z,2.80
2018-02-27T12:35:44.506Z,3.13
2018-02-27T12:38:13.369Z,3.10
2018-02-27T12:40:42.491Z,2.93
2018-02-27T12:43:11.381Z,2.93
2018-02-27T12:45:40.418Z,2.97
2018-02-27T12:48:09.329Z,2.73
2018-02-27T12:50:38.630Z,3.20
2018-02-27T12:53:09.210Z,2.80
2018-02-27T12:55:39.636Z,2.90
2018-02-27T12:58:08.482Z,2.53
2018-02-27T13:00:37.397Z,2.70
2018-02-27T13:03:06.297Z,2.90
2018-02-27T13:05:35.140Z,3.17
2018-02-27T13:08:04.026Z,3.20
2018-02-27T13:10:32.925Z,3.00
2018-02-27T13:13:02.466Z,3.03
2018-02-27T13:15:32.250Z,3.00
2018-02-27T13:18:01.100Z,3.40
2018-02-27T13:20:29.935Z,2.80
2018-02-27T13:23:00.582Z,2.60
2018-02-27T13:25:29.482Z,2.70
2018-02-27T13:27:58.769Z,3.03
2018-02-27T13:30:27.607Z,3.20
2018-02-27T13:32:56.468Z,3.23
2018-02-27T13:35:25.370Z,3.30
2018-02-27T13:37:54.222Z,3.30
2018-02-27T13:40:23.082Z,2.97
2018-02-27T13:42:52.837Z,3.50
2018-02-27T13:45:21.688Z,3.23
2018-02-27T13:47:50.587Z,3.20
2018-02-27T13:50:20.056Z,3.00
2018-02-27T13:52:48.894Z,2.90
2018-02-27T13:55:21.706Z,3.10
2018-02-27T13:57:50.886Z,2.87
2018-02-27T14:00:21.105Z,2.90
2018-02-27T14:02:49.973Z,3.13
2018-02-27T14:05:19.428Z,3.20
2018-02-27T14:07:48.312Z,3.43
2018-02-27T14:10:21.064Z,3.20
2018-02-27T14:12:49.924Z,3.40
2018-02-27T14:15:23.022Z,2.90
2018-02-27T14:17:51.922Z,3.40
2018-02-27T14:20:29.440Z,3.57
2018-02-27T14:22:59.188Z,3.10
2018-02-27T14:25:28.044Z,3.40
2018-02-27T14:28:00.227Z,3.17
2018-02-27T14:30:29.447Z,3.03
2018-02-27T14:32:59.744Z,3.20
2018-02-27T14:35:28.637Z,3.27
2018-02-27T14:37:57.508Z,3.20
2018-02-27T14:40:26.656Z,3.13
2018-02-27T14:42:55.496Z,2.83
2018-02-27T14:45:24.363Z,3.30
2018-02-27T14:47:53.229Z,3.20
2018-02-27T14:50:22.064Z,2.90
2018-02-27T14:52:51.737Z,3.20
2018-02-27T14:57:57.656Z,3.10
2018-02-27T15:00:26.498Z,3.30
2018-02-27T15:02:56.212Z,2.97
2018-02-27T15:05:25.042Z,2.90
2018-02-27T15:07:54.698Z,3.40
2018-02-27T15:10:23.548Z,3.10
2018-02-27T15:12:52.382Z,3.30
2018-02-27T15:15:21.246Z,3.33
2018-02-27T15:17:50.099Z,3.30
2018-02-27T15:20:19.001Z,3.63
2018-02-27T15:22:48.372Z,3.70
2018-02-27T15:25:18.444Z,2.97
2018-02-27T15:27:48.926Z,3.03
2018-02-27T15:30:18.473Z,3.47
2018-02-27T15:32:47.680Z,3.40
2018-02-27T15:35:19.930Z,3.33
2018-02-27T15:37:49.699Z,3.37
2018-02-27T15:40:20.362Z,3.43
2018-02-27T15:42:50.057Z,3.67
2018-02-27T15:45:19.672Z,3.00
2018-02-27T15:47:48.518Z,3.10
2018-02-27T15:50:17.410Z,3.20
2018-02-27T15:52:46.244Z,3.17
2018-02-27T15:55:15.154Z,3.20
2018-02-27T15:57:44.028Z,3.67
2018-02-27T16:00:12.876Z,3.20
2018-02-27T16:02:41.744Z,3.30
2018-02-27T16:05:10.652Z,3.33
2018-02-27T16:07:40.732Z,3.20
2018-02-27T16:10:12.242Z,3.67
2018-02-27T16:12:45.468Z,3.43
2018-02-27T16:15:14.363Z,3.40
2018-02-27T16:17:43.505Z,3.73
2018-02-27T16:20:13.388Z,3.47
2018-02-27T16:22:48.148Z,3.20
2018-02-27T16:25:22.656Z,3.97
2018-02-27T16:27:52.388Z,3.50
2018-02-27T16:30:23.173Z,3.80
2018-02-27T16:32:52.050Z,3.53
2018-02-27T16:35:20.992Z,3.67
2018-02-27T16:37:49.860Z,3.73
2018-02-27T16:40:19.553Z,3.43
2018-02-27T16:42:48.404Z,3.60
2018-02-27T16:45:17.248Z,3.50
2018-02-27T16:47:46.118Z,4.00
2018-02-27T16:50:15.005Z,3.60
2018-02-27T16:52:44.394Z,3.83
2018-02-27T16:55:13.323Z,3.83
2018-02-27T16:57:42.169Z,4.07
2018-02-27T17:00:11.737Z,3.90
2018-02-27T17:02:40.622Z,3.30
2018-02-27T17:05:09.456Z,3.37
2018-02-27T17:10:14.469Z,3.73
2018-02-27T17:12:44.795Z,4.10
2018-02-27T17:15:15.508Z,3.80
2018-02-27T17:17:44.377Z,4.03
2018-02-27T17:20:14.134Z,4.10
2018-02-27T17:22:44.088Z,4.17
2018-02-27T17:25:14.364Z,4.13
2018-02-27T17:27:48.610Z,3.97
2018-02-27T17:30:20.756Z,14.07
2018-02-27T17:32:52.550Z,9.40
2018-02-27T17:35:21.404Z,4.03
2018-02-27T17:37:50.250Z,5.27
2018-02-27T17:40:22.077Z,4.33
2018-02-27T17:42:51.803Z,4.30
2018-02-27T17:45:20.686Z,4.03
2018-02-27T17:47:49.644Z,3.93
2018-02-27T17:50:21.769Z,3.90
2018-02-27T17:52:52.041Z,4.20
2018-02-27T17:55:21.257Z,4.30
2018-02-27T17:57:50.122Z,4.33
2018-02-27T18:00:20.263Z,5.87
2018-02-27T18:02:50.839Z,4.60
2018-02-27T18:05:20.245Z,5.23
2018-02-27T18:07:49.746Z,4.00
2018-02-27T18:10:20.355Z,4.50
2018-02-27T18:12:50.794Z,4.23
2018-02-27T18:15:20.037Z,4.50
2018-02-27T18:17:49.227Z,4.10
2018-02-27T18:20:20.013Z,3.77
2018-02-27T18:22:51.164Z,12.50
2018-02-27T18:25:21.085Z,40.37
2018-02-27T18:27:51.471Z,14.23
2018-02-27T18:30:20.316Z,4.33
2018-02-27T18:32:49.184Z,5.53
2018-02-27T18:35:18.184Z,5.77
2018-02-27T18:37:47.081Z,3.97
2018-02-27T18:40:15.933Z,4.20
2018-02-27T18:42:44.789Z,4.20
2018-02-27T18:45:13.656Z,4.23
2018-02-27T18:47:43.465Z,4.63
2018-02-27T18:50:12.309Z,4.40
2018-02-27T18:52:41.143Z,4.30
2018-02-27T18:55:09.992Z,4.57
2018-02-27T18:57:39.410Z,4.17
2018-02-27T19:00:09.747Z,4.63
2018-02-27T19:02:39.235Z,5.23
2018-02-27T19:05:08.087Z,4.50
2018-02-27T19:07:36.938Z,4.73
2018-02-27T19:10:05.827Z,4.20
2018-02-27T19:12:34.694Z,4.70
2018-02-27T19:15:05.111Z,4.60
2018-02-27T19:17:33.980Z,4.70
2018-02-27T19:20:02.829Z,4.37
2018-02-27T19:22:31.684Z,4.70
2018-02-27T19:25:00.553Z,4.77
2018-02-27T19:27:29.419Z,5.23
2018-02-27T19:29:58.261Z,4.67
2018-02-27T19:32:27.125Z,4.83
2018-02-27T19:34:56.028Z,5.13
2018-02-27T19:37:25.834Z,4.90
2018-02-27T19:39:54.711Z,4.57
2018-02-27T19:42:23.559Z,4.57
2018-02-27T19:44:52.825Z,4.70
2018-02-27T19:47:21.710Z,5.30
2018-02-27T19:49:50.559Z,4.17
2018-02-27T19:52:20.188Z,4.80
2018-02-27T19:54:49.093Z,4.70
2018-02-27T19:57:17.927Z,4.93
2018-02-27T19:59:46.774Z,4.60
2018-02-27T20:02:15.637Z,5.07
2018-02-27T20:04:44.479Z,4.93
2018-02-27T20:07:13.328Z,4.53
2018-02-27T20:09:42.229Z,4.47
2018-02-27T20:12:11.116Z,5.00
2018-02-27T20:14:39.964Z,5.10
2018-02-27T20:17:08.824Z,5.17
2018-02-27T20:19:38.686Z,4.97
2018-02-27T20:22:08.273Z,5.00
2018-02-27T20:24:37.167Z,5.03
2018-02-27T20:27:06.114Z,4.50
2018-02-27T20:29:34.956Z,4.60
2018-02-27T20:32:03.893Z,4.47
2018-02-27T20:34:32.828Z,5.30
2018-02-27T20:37:01.715Z,4.67
2018-02-27T20:39:30.599Z,6.65
2018-02-27T20:42:00.102Z,5.07
2018-02-27T20:44:28.955Z,4.83
2018-02-27T20:46:57.856Z,5.50
2018-02-27T20:49:26.715Z,5.20
2018-02-27T20:51:55.556Z,4.90
2018-02-27T20:54:24.441Z,4.37
2018-02-27T20:56:53.296Z,5.43
2018-02-27T20:59:22.138Z,5.20
2018-02-27T21:01:51.012Z,5.27
2018-02-27T21:04:19.864Z,5.10
2018-02-27T21:06:49.587Z,5.27
2018-02-27T21:09:19.219Z,5.80
2018-02-27T21:11:48.077Z,5.43
2018-02-27T21:14:16.911Z,5.50
2018-02-27T21:16:45.843Z,5.37
2018-02-27T21:19:15.867Z,5.73
2018-02-27T21:21:46.445Z,5.80
2018-02-27T21:24:16.476Z,5.07
2018-02-27T21:26:45.932Z,5.93
2018-02-27T21:29:16.846Z,6.40
2018-02-27T21:31:46.316Z,6.10
2018-02-27T21:34:16.160Z,5.37
2018-02-27T21:36:45.753Z,6.63
2018-02-27T21:39:15.861Z,6.53
2018-02-27T21:41:45.976Z,7.73
2018-02-27T21:44:15.760Z,5.97
2018-02-27T21:46:47.314Z,7.53
2018-02-27T21:49:17.277Z,6.63
2018-02-27T21:51:47.622Z,7.37
2018-02-27T21:54:20.695Z,7.73
2018-02-27T21:56:49.894Z,7.63
2018-02-27T21:59:21.003Z,6.80
2018-02-27T22:01:49.913Z,6.97
2018-02-27T22:04:21.022Z,7.77
2018-02-27T22:06:49.891Z,6.97
2018-02-27T22:09:19.068Z,7.10
2018-02-27T22:11:47.904Z,7.20
2018-02-27T22:14:16.781Z,6.97
2018-02-27T22:16:46.532Z,7.53
2018-02-27T22:19:26.346Z,6.80
2018-02-27T22:21:55.236Z,7.47
2018-02-27T22:24:24.308Z,6.83
2018-02-27T22:26:53.152Z,6.70
2018-02-27T22:29:22.024Z,6.17
2018-02-27T22:31:50.944Z,7.00
2018-02-27T22:34:21.108Z,6.40
2018-02-27T22:37:00.609Z,7.07
2018-02-27T22:39:29.507Z,7.00
2018-02-27T22:41:58.420Z,6.57
2018-02-27T22:44:27.580Z,7.37
2018-02-27T22:46:56.442Z,7.47
2018-02-27T22:49:25.312Z,7.43
2018-02-27T22:51:54.180Z,6.70
2018-02-27T22:54:25.395Z,7.90
2018-02-27T22:56:54.520Z,6.93
2018-02-27T22:59:23.384Z,7.20
2018-02-27T23:01:52.244Z,8.10
2018-02-27T23:04:21.106Z,7.87
2018-02-27T23:06:50.044Z,7.53
2018-02-27T23:09:19.483Z,7.73
2018-02-27T23:11:48.324Z,6.90
2018-02-27T23:14:17.168Z,7.30
2018-02-27T23:16:46.433Z,7.77
2018-02-27T23:19:15.276Z,8.53
2018-02-27T23:21:44.129Z,7.73
2018-02-27T23:24:13.788Z,7.63
2018-02-27T23:26:47.131Z,7.67
2018-02-27T23:29:16.251Z,7.63
2018-02-27T23:31:56.375Z,7.50
2018-02-27T23:34:35.806Z,8.40
2018-02-27T23:37:04.647Z,8.30
2018-02-27T23:39:33.497Z,8.10
2018-02-27T23:42:02.409Z,7.10
2018-02-27T23:44:32.049Z,7.63
2018-02-27T23:47:00.898Z,8.17
2018-02-27T23:49:29.784Z,7.33
2018-02-27T23:51:58.632Z,8.17
2018-02-27T23:54:27.824Z,8.53
2018-02-27T23:56:56.703Z,7.97
2018-02-27T23:59:25.550Z,7.93
